createdAt,value
2019-03-16T00:01:26.228Z,79.98
2019-03-16T00:03:54.541Z,79.85
2019-03-16T00:06:22.824Z,79.73
2019-03-16T00:08:51.157Z,78.78
2019-03-16T00:11:19.694Z,79.31
2019-03-16T00:13:48.028Z,79.36
2019-03-16T00:16:16.335Z,79.44
2019-03-16T00:18:44.620Z,79.49
2019-03-16T00:21:13.260Z,79.50
2019-03-16T00:23:41.570Z,79.49
2019-03-16T00:26:09.869Z,79.53
2019-03-16T00:28:38.491Z,79.66
2019-03-16T00:31:06.802Z,79.68
2019-03-16T00:33:35.086Z,79.80
2019-03-16T00:36:03.402Z,79.05
2019-03-16T00:38:31.704Z,79.28
2019-03-16T00:41:00.039Z,79.34
2019-03-16T00:43:28.318Z,79.33
2019-03-16T00:45:56.619Z,79.36
2019-03-16T00:48:24.929Z,79.60
2019-03-16T00:50:53.227Z,79.69
2019-03-16T00:53:21.811Z,79.80
2019-03-16T00:55:50.133Z,79.76
2019-03-16T00:58:18.426Z,79.90
2019-03-16T01:00:46.725Z,80.07
2019-03-16T01:03:15.044Z,80.19
2019-03-16T01:05:43.354Z,80.11
2019-03-16T01:08:11.942Z,80.53
2019-03-16T01:10:40.250Z,80.68
2019-03-16T01:13:08.962Z,80.28
2019-03-16T01:15:38.341Z,80.45
2019-03-16T01:18:06.704Z,80.69
2019-03-16T01:20:35.011Z,80.87
2019-03-16T01:23:03.308Z,80.88
2019-03-16T01:25:31.670Z,80.93
2019-03-16T01:28:00.322Z,80.91
2019-03-16T01:30:28.662Z,80.85
2019-03-16T01:32:56.931Z,80.72
2019-03-16T01:35:25.233Z,80.60
2019-03-16T01:37:53.529Z,80.49
2019-03-16T01:40:22.202Z,80.44
2019-03-16T01:42:50.486Z,80.49
2019-03-16T01:45:18.793Z,80.35
2019-03-16T01:47:47.150Z,80.08
2019-03-16T01:50:15.459Z,79.91
2019-03-16T01:52:44.092Z,79.95
2019-03-16T01:55:12.416Z,80.12
2019-03-16T01:57:40.790Z,80.26
2019-03-16T02:00:12.587Z,80.60
2019-03-16T02:02:53.798Z,80.88
2019-03-16T02:05:10.973Z,80.82
2019-03-16T02:07:39.289Z,81.06
2019-03-16T02:10:09.203Z,81.06
2019-03-16T02:12:37.873Z,81.25
2019-03-16T02:15:07.893Z,81.28
2019-03-16T02:17:36.216Z,81.35
2019-03-16T02:20:06.340Z,81.29
2019-03-16T02:22:34.647Z,81.35
2019-03-16T02:25:02.930Z,81.01
2019-03-16T02:27:31.255Z,80.63
2019-03-16T02:29:59.538Z,80.91
2019-03-16T02:32:27.858Z,80.77
2019-03-16T02:34:56.536Z,80.88
2019-03-16T02:37:24.846Z,80.81
2019-03-16T02:39:53.187Z,80.62
2019-03-16T02:42:21.471Z,80.01
2019-03-16T02:44:49.807Z,79.62
2019-03-16T02:47:18.115Z,79.57
2019-03-16T02:49:46.742Z,78.94
2019-03-16T02:52:15.042Z,78.51
2019-03-16T02:54:43.380Z,78.61
2019-03-16T02:57:11.971Z,78.51
2019-03-16T02:59:40.288Z,78.59
2019-03-16T03:02:08.586Z,78.20
2019-03-16T03:04:37.221Z,78.52
2019-03-16T03:07:05.812Z,78.47
2019-03-16T03:09:34.079Z,78.59
2019-03-16T03:12:02.645Z,78.63
2019-03-16T03:14:30.938Z,78.89
2019-03-16T03:16:59.511Z,78.95
2019-03-16T03:19:27.834Z,78.58
2019-03-16T03:21:56.139Z,78.53
2019-03-16T03:24:24.431Z,78.32
2019-03-16T03:26:52.734Z,78.25
2019-03-16T03:29:21.109Z,78.32
2019-03-16T03:31:49.432Z,78.66
2019-03-16T03:34:17.744Z,78.87
2019-03-16T03:36:46.036Z,78.51
2019-03-16T03:39:14.353Z,78.81
2019-03-16T03:41:42.710Z,78.97
2019-03-16T03:44:11.383Z,78.83
2019-03-16T03:46:39.659Z,79.08
2019-03-16T03:49:07.981Z,79.03
2019-03-16T03:51:36.265Z,79.51
2019-03-16T03:54:04.997Z,79.55
2019-03-16T03:56:33.389Z,79.69
2019-03-16T03:59:01.703Z,79.78
2019-03-16T04:01:30.015Z,80.13
2019-03-16T04:04:14.254Z,80.46
2019-03-16T04:06:28.547Z,80.94
2019-03-16T04:08:56.844Z,81.58
2019-03-16T04:11:25.165Z,82.07
2019-03-16T04:13:53.471Z,82.54
2019-03-16T04:16:21.786Z,82.91
2019-03-16T04:18:51.790Z,82.99
2019-03-16T04:21:20.851Z,83.73
2019-03-16T04:23:49.214Z,83.48
2019-03-16T04:26:17.523Z,84.23
2019-03-16T04:28:45.909Z,84.83
2019-03-16T04:31:14.213Z,85.24
2019-03-16T04:33:42.698Z,86.01
2019-03-16T04:36:11.319Z,85.78
2019-03-16T04:38:39.694Z,86.83
2019-03-16T04:41:08.007Z,86.99
2019-03-16T04:43:36.326Z,87.09
2019-03-16T04:46:04.925Z,87.97
2019-03-16T04:48:33.224Z,88.04
2019-03-16T04:51:01.530Z,88.51
2019-03-16T04:53:29.816Z,88.81
2019-03-16T04:55:58.131Z,89.20
2019-03-16T04:58:26.417Z,89.29
2019-03-16T05:00:54.745Z,89.65
2019-03-16T05:03:23.395Z,89.72
2019-03-16T05:05:51.695Z,90.13
2019-03-16T05:08:20.281Z,90.10
2019-03-16T05:10:48.668Z,90.37
2019-03-16T05:13:17.293Z,90.63
2019-03-16T05:15:45.597Z,90.72
2019-03-16T05:18:13.904Z,91.02
2019-03-16T05:20:42.246Z,90.98
2019-03-16T05:23:10.531Z,91.16
2019-03-16T05:25:38.819Z,91.31
2019-03-16T05:28:07.465Z,91.52
2019-03-16T05:30:35.876Z,91.70
2019-03-16T05:33:04.208Z,91.74
2019-03-16T05:35:32.499Z,92.18
2019-03-16T05:38:00.803Z,92.27
2019-03-16T05:40:29.087Z,92.44
2019-03-16T05:42:57.733Z,92.60
2019-03-16T05:45:26.029Z,92.75
2019-03-16T05:47:54.368Z,92.83
2019-03-16T05:50:22.651Z,92.94
2019-03-16T05:52:50.966Z,93.10
2019-03-16T05:55:19.254Z,93.20
2019-03-16T05:57:47.672Z,93.26
2019-03-16T06:00:16.598Z,93.39
2019-03-16T06:02:44.922Z,93.64
2019-03-16T06:05:13.567Z,93.65
2019-03-16T06:07:41.890Z,93.85
2019-03-16T06:10:11.319Z,93.93
2019-03-16T06:12:39.633Z,94.05
2019-03-16T06:15:09.777Z,94.25
2019-03-16T06:17:38.170Z,94.34
2019-03-16T06:20:11.181Z,94.03
2019-03-16T06:22:39.495Z,94.45
2019-03-16T06:25:08.815Z,94.48
2019-03-16T06:27:37.118Z,94.55
2019-03-16T06:30:08.500Z,94.63
2019-03-16T06:32:36.806Z,94.74
2019-03-16T06:35:05.957Z,94.86
2019-03-16T06:37:34.264Z,95.03
2019-03-16T06:40:02.583Z,95.13
2019-03-16T06:42:30.897Z,95.29
2019-03-16T06:44:59.495Z,95.32
2019-03-16T06:47:27.779Z,95.46
2019-03-16T06:49:56.449Z,95.54
2019-03-16T06:52:24.740Z,95.60
2019-03-16T06:54:53.066Z,95.67
2019-03-16T06:57:21.358Z,95.61
2019-03-16T06:59:49.683Z,95.56
2019-03-16T07:02:18.259Z,95.76
2019-03-16T07:04:46.582Z,95.95
2019-03-16T07:07:14.871Z,95.92
2019-03-16T07:09:43.203Z,96.06
2019-03-16T07:12:11.511Z,96.05
2019-03-16T07:14:39.810Z,96.04
2019-03-16T07:17:08.130Z,96.27
2019-03-16T07:19:36.426Z,96.31
2019-03-16T07:22:04.761Z,96.38
2019-03-16T07:24:33.059Z,96.37
2019-03-16T07:27:01.361Z,96.33
2019-03-16T07:29:29.644Z,96.35
2019-03-16T07:31:57.955Z,96.34
2019-03-16T07:34:26.239Z,96.35
2019-03-16T07:36:54.566Z,96.32
2019-03-16T07:39:22.902Z,96.33
2019-03-16T07:41:52.247Z,96.25
2019-03-16T07:44:20.539Z,96.10
2019-03-16T07:46:49.270Z,96.01
2019-03-16T07:49:17.862Z,96.11
2019-03-16T07:51:46.152Z,96.26
2019-03-16T07:54:14.450Z,96.44
2019-03-16T07:56:42.742Z,96.51
2019-03-16T07:59:11.054Z,96.53
2019-03-16T08:01:39.354Z,96.54
2019-03-16T08:04:07.665Z,96.54
2019-03-16T08:06:36.216Z,96.55
2019-03-16T08:09:05.892Z,96.53
2019-03-16T08:11:34.323Z,96.41
2019-03-16T08:14:02.799Z,96.44
2019-03-16T08:16:31.114Z,96.51
2019-03-16T08:18:59.486Z,96.58
2019-03-16T08:21:27.813Z,96.51
2019-03-16T08:23:56.315Z,96.71
2019-03-16T08:26:24.619Z,96.63
2019-03-16T08:28:52.985Z,96.85
2019-03-16T08:31:21.281Z,96.98
2019-03-16T08:33:49.805Z,97.05
2019-03-16T08:36:18.680Z,97.24
2019-03-16T08:38:47.260Z,97.39
2019-03-16T08:41:15.548Z,97.42
2019-03-16T08:43:44.235Z,97.56
2019-03-16T08:46:12.509Z,97.23
2019-03-16T08:48:40.846Z,97.42
2019-03-16T08:51:09.153Z,97.23
2019-03-16T08:53:37.461Z,97.04
2019-03-16T08:56:05.797Z,97.04
2019-03-16T08:58:34.401Z,97.01
2019-03-16T09:01:02.699Z,96.99
2019-03-16T09:03:42.681Z,97.07
2019-03-16T09:06:01.061Z,97.16
2019-03-16T09:08:29.610Z,96.97
2019-03-16T09:10:57.906Z,97.12
2019-03-16T09:13:26.191Z,97.04
2019-03-16T09:15:54.517Z,96.86
2019-03-16T09:18:22.814Z,97.05
2019-03-16T09:20:51.143Z,97.13
2019-03-16T09:23:19.447Z,96.79
2019-03-16T09:25:47.753Z,96.75
2019-03-16T09:28:18.950Z,96.40
2019-03-16T09:30:46.089Z,96.40
2019-03-16T09:33:14.432Z,96.48
2019-03-16T09:35:42.700Z,96.44
2019-03-16T09:38:11.054Z,96.26
2019-03-16T09:40:39.700Z,96.26
2019-03-16T09:43:07.992Z,95.83
2019-03-16T09:45:36.321Z,95.85
2019-03-16T09:48:04.611Z,95.59
2019-03-16T09:50:33.221Z,95.51
2019-03-16T09:53:01.522Z,95.16
2019-03-16T09:55:30.193Z,95.12
2019-03-16T09:57:58.909Z,94.96
2019-03-16T10:00:27.215Z,94.83
2019-03-16T10:02:55.528Z,94.15
2019-03-16T10:05:23.959Z,93.39
2019-03-16T10:07:52.254Z,93.05
2019-03-16T10:10:20.873Z,92.78
2019-03-16T10:12:49.176Z,92.13
2019-03-16T10:15:17.473Z,91.48
2019-03-16T10:17:45.850Z,91.02
2019-03-16T10:20:17.174Z,90.77
2019-03-16T10:22:45.456Z,90.23
2019-03-16T10:25:13.860Z,90.43
2019-03-16T10:27:42.124Z,90.48
2019-03-16T10:30:12.282Z,90.40
2019-03-16T10:32:40.635Z,89.94
2019-03-16T10:35:09.002Z,89.83
2019-03-16T10:37:37.299Z,89.52
2019-03-16T10:40:10.746Z,88.63
2019-03-16T10:42:39.039Z,88.85
2019-03-16T10:45:09.077Z,88.20
2019-03-16T10:47:37.369Z,88.09
2019-03-16T10:50:08.906Z,87.88
2019-03-16T10:52:37.193Z,87.76
2019-03-16T10:55:07.011Z,87.11
2019-03-16T10:57:35.331Z,87.03
2019-03-16T11:00:05.633Z,87.08
2019-03-16T11:02:33.952Z,87.08
2019-03-16T11:05:02.240Z,86.96
2019-03-16T11:07:30.548Z,86.94
2019-03-16T11:09:58.842Z,86.44
2019-03-16T11:12:27.162Z,86.05
2019-03-16T11:14:55.457Z,85.74
2019-03-16T11:17:24.289Z,84.87
2019-03-16T11:19:52.566Z,85.29
2019-03-16T11:22:20.903Z,84.38
2019-03-16T11:24:49.204Z,84.18
2019-03-16T11:27:17.533Z,83.91
2019-03-16T11:29:45.809Z,83.98
2019-03-16T11:32:14.091Z,83.76
2019-03-16T11:34:42.495Z,83.08
2019-03-16T11:37:10.776Z,83.05
2019-03-16T11:39:39.096Z,83.04
2019-03-16T11:42:07.376Z,82.42
2019-03-16T11:44:36.055Z,81.45
2019-03-16T11:47:04.347Z,81.54
2019-03-16T11:49:32.666Z,81.22
2019-03-16T11:52:00.966Z,80.35
2019-03-16T11:54:29.267Z,79.62
2019-03-16T11:56:57.828Z,79.19
2019-03-16T11:59:26.108Z,79.22
2019-03-16T12:02:04.859Z,78.87
2019-03-16T12:04:24.719Z,78.57
2019-03-16T12:06:53.109Z,78.35
2019-03-16T12:09:21.671Z,78.58
2019-03-16T12:11:50.048Z,78.57
2019-03-16T12:14:18.372Z,78.05
2019-03-16T12:16:46.678Z,78.07
2019-03-16T12:19:14.960Z,78.65
2019-03-16T12:21:43.259Z,78.66
2019-03-16T12:24:11.865Z,78.13
2019-03-16T12:26:40.163Z,78.17
2019-03-16T12:29:08.445Z,77.27
2019-03-16T12:31:37.075Z,77.43
2019-03-16T12:34:05.385Z,76.39
2019-03-16T12:36:36.092Z,75.95
2019-03-16T12:39:06.600Z,76.06
2019-03-16T12:41:34.882Z,76.24
2019-03-16T12:44:03.481Z,76.60
2019-03-16T12:46:32.468Z,76.38
2019-03-16T12:49:00.891Z,76.73
2019-03-16T12:51:29.189Z,77.32
2019-03-16T12:53:57.558Z,77.41
2019-03-16T12:56:25.872Z,77.34
2019-03-16T12:58:54.574Z,77.53
2019-03-16T13:01:23.417Z,77.20
2019-03-16T13:03:52.039Z,77.46
2019-03-16T13:06:20.621Z,77.64
2019-03-16T13:08:48.914Z,77.71
2019-03-16T13:11:17.232Z,77.12
2019-03-16T13:13:45.557Z,76.77
2019-03-16T13:16:13.860Z,76.92
2019-03-16T13:18:42.413Z,76.90
2019-03-16T13:21:10.732Z,76.79
2019-03-16T13:23:39.281Z,76.27
2019-03-16T13:26:07.577Z,76.25
2019-03-16T13:28:35.929Z,76.60
2019-03-16T13:31:04.512Z,77.05
2019-03-16T13:33:32.885Z,77.33
2019-03-16T13:36:01.224Z,77.17
2019-03-16T13:38:29.572Z,77.12
2019-03-16T13:40:58.150Z,77.33
2019-03-16T13:43:26.698Z,77.63
2019-03-16T13:45:55.000Z,77.13
2019-03-16T13:48:23.548Z,77.49
2019-03-16T13:50:51.872Z,77.83
2019-03-16T13:53:20.172Z,77.73
2019-03-16T13:55:49.119Z,77.81
2019-03-16T13:58:17.418Z,77.89
2019-03-16T14:00:45.824Z,77.67
2019-03-16T14:03:14.349Z,78.10
2019-03-16T14:05:42.871Z,78.10
2019-03-16T14:08:11.199Z,78.04
2019-03-16T14:10:39.783Z,77.91
2019-03-16T14:13:08.084Z,77.80
2019-03-16T14:15:36.375Z,77.44
2019-03-16T14:18:04.699Z,76.59
2019-03-16T14:20:33.417Z,77.02
2019-03-16T14:23:01.980Z,76.72
2019-03-16T14:25:30.581Z,76.86
2019-03-16T14:27:59.163Z,76.24
2019-03-16T14:30:40.484Z,75.33
2019-03-16T14:32:57.588Z,74.95
2019-03-16T14:35:25.899Z,75.22
2019-03-16T14:37:54.185Z,74.46
2019-03-16T14:40:23.151Z,74.55
2019-03-16T14:42:51.415Z,74.09
2019-03-16T14:45:20.000Z,73.12
2019-03-16T14:47:48.386Z,71.85
2019-03-16T14:50:21.461Z,71.77
2019-03-16T14:52:50.242Z,71.41
2019-03-16T14:55:18.533Z,71.59
2019-03-16T14:57:46.842Z,71.56
2019-03-16T15:00:16.064Z,71.16
2019-03-16T15:02:46.060Z,70.78
2019-03-16T15:05:14.893Z,71.72
2019-03-16T15:07:43.201Z,71.90
2019-03-16T15:10:12.919Z,72.18
2019-03-16T15:12:41.566Z,71.68
2019-03-16T15:15:12.680Z,72.59
2019-03-16T15:17:40.972Z,72.63
2019-03-16T15:20:11.520Z,72.09
2019-03-16T15:22:39.856Z,72.17
2019-03-16T15:25:11.242Z,72.19
2019-03-16T15:27:39.774Z,72.22
2019-03-16T15:30:17.336Z,72.45
2019-03-16T15:32:45.646Z,72.01
2019-03-16T15:35:14.096Z,71.20
2019-03-16T15:37:42.369Z,71.05
2019-03-16T15:40:12.017Z,71.46
2019-03-16T15:42:40.308Z,71.29
2019-03-16T15:45:11.802Z,71.54
2019-03-16T15:47:40.167Z,71.71
2019-03-16T15:50:09.319Z,71.95
2019-03-16T15:52:37.914Z,72.26
2019-03-16T15:55:07.509Z,72.35
2019-03-16T15:57:35.828Z,72.38
2019-03-16T16:00:07.685Z,72.20
2019-03-16T16:02:35.977Z,71.92
2019-03-16T16:05:05.811Z,71.76
2019-03-16T16:07:35.424Z,71.60
2019-03-16T16:10:07.130Z,71.54
2019-03-16T16:12:35.446Z,71.65
2019-03-16T16:15:06.415Z,70.82
2019-03-16T16:17:34.723Z,71.03
2019-03-16T16:20:03.786Z,70.81
2019-03-16T16:22:32.081Z,70.45
2019-03-16T16:25:00.509Z,70.81
2019-03-16T16:27:29.176Z,70.45
2019-03-16T16:29:57.479Z,70.36
2019-03-16T16:32:25.803Z,70.43
2019-03-16T16:34:54.510Z,70.10
2019-03-16T16:37:22.812Z,69.62
2019-03-16T16:39:51.384Z,69.85
2019-03-16T16:42:19.954Z,69.77
2019-03-16T16:44:48.268Z,69.42
2019-03-16T16:47:16.571Z,69.12
2019-03-16T16:49:44.867Z,69.45
2019-03-16T16:52:13.164Z,69.27
2019-03-16T16:54:41.856Z,69.46
2019-03-16T16:57:10.158Z,69.63
2019-03-16T16:59:38.455Z,69.92
2019-03-16T17:02:07.021Z,69.87
2019-03-16T17:04:35.339Z,69.85
2019-03-16T17:07:03.863Z,70.11
2019-03-16T17:09:32.429Z,70.44
2019-03-16T17:12:00.727Z,70.37
2019-03-16T17:14:30.095Z,70.41
2019-03-16T17:16:58.742Z,70.25
2019-03-16T17:19:27.077Z,70.55
2019-03-16T17:21:55.654Z,71.05
2019-03-16T17:24:23.979Z,71.13
2019-03-16T17:26:52.717Z,71.20
2019-03-16T17:29:21.132Z,71.36
2019-03-16T17:31:49.485Z,71.62
2019-03-16T17:34:18.093Z,71.57
2019-03-16T17:36:46.632Z,71.63
2019-03-16T17:39:14.936Z,72.05
2019-03-16T17:41:43.243Z,71.83
2019-03-16T17:44:11.980Z,72.07
2019-03-16T17:46:40.307Z,72.07
2019-03-16T17:49:08.937Z,72.12
2019-03-16T17:51:37.536Z,71.82
2019-03-16T17:54:05.874Z,72.09
2019-03-16T17:56:34.163Z,71.96
2019-03-16T17:59:02.473Z,72.01
2019-03-16T18:01:30.771Z,72.14
2019-03-16T18:03:59.080Z,71.67
2019-03-16T18:06:27.424Z,71.84
2019-03-16T18:08:55.720Z,70.88
2019-03-16T18:11:24.361Z,70.98
2019-03-16T18:13:52.677Z,70.65
2019-03-16T18:16:20.978Z,70.44
2019-03-16T18:18:49.312Z,70.24
2019-03-16T18:21:17.622Z,70.25
2019-03-16T18:23:45.905Z,70.04
2019-03-16T18:26:14.235Z,69.93
2019-03-16T18:28:42.806Z,69.69
2019-03-16T18:31:11.502Z,69.66
2019-03-16T18:33:39.772Z,69.70
2019-03-16T18:36:11.332Z,69.68
2019-03-16T18:38:38.491Z,69.53
2019-03-16T18:41:06.843Z,69.62
2019-03-16T18:43:35.248Z,69.76
2019-03-16T18:46:03.562Z,69.82
2019-03-16T18:48:31.854Z,69.88
2019-03-16T18:51:00.449Z,69.82
2019-03-16T18:53:29.076Z,70.12
2019-03-16T18:55:57.440Z,70.01
2019-03-16T18:58:36.541Z,69.94
2019-03-16T19:00:56.029Z,70.14
2019-03-16T19:03:24.365Z,70.29
2019-03-16T19:05:52.699Z,70.34
2019-03-16T19:08:21.010Z,70.57
2019-03-16T19:10:49.315Z,70.72
2019-03-16T19:13:17.628Z,70.76
2019-03-16T19:15:46.163Z,70.74
2019-03-16T19:18:14.739Z,70.74
2019-03-16T19:20:43.038Z,70.53
2019-03-16T19:23:11.458Z,70.89
2019-03-16T19:25:39.857Z,70.99
2019-03-16T19:28:08.408Z,70.98
2019-03-16T19:30:36.726Z,70.58
2019-03-16T19:33:05.293Z,70.64
2019-03-16T19:35:33.682Z,70.51
2019-03-16T19:38:02.047Z,70.40
2019-03-16T19:40:30.375Z,70.09
2019-03-16T19:42:58.718Z,70.44
2019-03-16T19:45:27.032Z,70.24
2019-03-16T19:47:55.357Z,70.27
2019-03-16T19:50:23.681Z,70.28
2019-03-16T19:52:52.703Z,69.82
2019-03-16T19:55:21.033Z,70.24
2019-03-16T19:57:49.332Z,70.24
2019-03-16T20:00:18.263Z,69.44
2019-03-16T20:02:50.965Z,69.74
2019-03-16T20:05:17.062Z,69.83
2019-03-16T20:07:45.492Z,69.81
2019-03-16T20:10:19.005Z,69.70
2019-03-16T20:12:47.926Z,69.69
2019-03-16T20:15:17.112Z,69.68
2019-03-16T20:17:45.692Z,69.65
2019-03-16T20:20:15.251Z,69.56
2019-03-16T20:22:44.797Z,69.33
2019-03-16T20:25:13.786Z,69.72
2019-03-16T20:27:42.402Z,69.73
2019-03-16T20:30:14.681Z,69.97
2019-03-16T20:32:43.042Z,69.95
2019-03-16T20:35:11.876Z,69.98
2019-03-16T20:37:40.245Z,70.02
2019-03-16T20:40:13.296Z,70.09
2019-03-16T20:42:41.826Z,70.16
2019-03-16T20:45:10.940Z,70.29
2019-03-16T20:47:39.876Z,70.28
2019-03-16T20:50:14.580Z,70.34
2019-03-16T20:52:43.260Z,70.39
2019-03-16T20:55:11.754Z,70.39
2019-03-16T20:57:40.329Z,70.49
2019-03-16T21:00:13.716Z,70.51
2019-03-16T21:02:42.076Z,70.53
2019-03-16T21:05:10.964Z,70.54
2019-03-16T21:07:39.309Z,70.61
2019-03-16T21:10:12.489Z,70.65
2019-03-16T21:12:40.952Z,70.71
2019-03-16T21:15:17.742Z,70.90
2019-03-16T21:17:46.019Z,70.93
2019-03-16T21:20:19.586Z,70.76
2019-03-16T21:22:47.873Z,70.84
2019-03-16T21:25:16.868Z,70.89
2019-03-16T21:27:45.193Z,71.02
2019-03-16T21:30:19.680Z,70.98
2019-03-16T21:32:48.172Z,70.74
2019-03-16T21:35:16.471Z,70.88
2019-03-16T21:37:45.098Z,70.94
2019-03-16T21:40:14.422Z,70.78
2019-03-16T21:42:42.734Z,70.53
2019-03-16T21:45:12.937Z,70.43
2019-03-16T21:47:59.909Z,70.65
2019-03-16T21:50:23.728Z,70.64
2019-03-16T21:52:52.043Z,70.75
2019-03-16T21:55:20.648Z,70.67
2019-03-16T21:57:48.952Z,70.62
2019-03-16T22:00:18.285Z,70.59
2019-03-16T22:02:46.598Z,70.60
2019-03-16T22:05:27.317Z,70.57
2019-03-16T22:07:55.957Z,70.51
2019-03-16T22:10:24.281Z,70.63
2019-03-16T22:12:52.584Z,70.65
2019-03-16T22:15:20.871Z,70.62
2019-03-16T22:17:49.179Z,70.77
2019-03-16T22:20:18.753Z,70.82
2019-03-16T22:22:47.371Z,70.75
2019-03-16T22:25:15.738Z,70.86
2019-03-16T22:27:44.022Z,70.91
2019-03-16T22:30:14.775Z,70.92
2019-03-16T22:32:43.373Z,71.02
2019-03-16T22:35:11.971Z,70.92
2019-03-16T22:37:40.332Z,70.80
2019-03-16T22:40:13.571Z,70.84
2019-03-16T22:42:41.960Z,70.83
2019-03-16T22:45:11.709Z,70.90
2019-03-16T22:47:39.997Z,70.81
2019-03-16T22:50:11.887Z,70.78
2019-03-16T22:52:40.168Z,70.85
2019-03-16T22:55:08.991Z,70.87
2019-03-16T22:57:37.298Z,70.94
2019-03-16T23:00:19.158Z,70.92
2019-03-16T23:02:47.614Z,70.98
2019-03-16T23:05:15.893Z,70.97
2019-03-16T23:07:44.498Z,71.08
2019-03-16T23:10:13.390Z,71.11
2019-03-16T23:12:41.690Z,71.07
2019-03-16T23:15:12.937Z,71.15
2019-03-16T23:17:41.480Z,71.20
2019-03-16T23:20:10.680Z,71.28
2019-03-16T23:22:39.270Z,71.44
2019-03-16T23:25:09.017Z,71.54
2019-03-16T23:27:37.859Z,71.69
2019-03-16T23:30:08.243Z,71.70
2019-03-16T23:32:36.571Z,71.76
2019-03-16T23:35:06.207Z,71.70
2019-03-16T23:37:34.517Z,71.92
2019-03-16T23:40:03.452Z,71.92
2019-03-16T23:42:31.726Z,71.90
2019-03-16T23:45:00.047Z,71.96
2019-03-16T23:47:28.355Z,72.01
2019-03-16T23:49:56.688Z,72.00
2019-03-16T23:52:25.462Z,72.07
2019-03-16T23:54:53.757Z,72.09
2019-03-16T23:57:22.035Z,71.87
2019-03-16T23:59:50.685Z,71.84
